sensor_id;sensor_type;location;lat;lon;timestamp;pressure;altitude;pressure_sealevel;temperature;humidity
48848;BME280;36611;51.638;5.784;2023-02-23T00:01:59;101148.78;;;13.79;59.77
48848;BME280;36611;51.638;5.784;2023-02-23T00:04:33;101152.47;;;13.78;59.60
48848;BME280;36611;51.638;5.784;2023-02-23T00:07:00;101147.06;;;13.78;59.50
48848;BME280;36611;51.638;5.784;2023-02-23T00:09:27;101150.63;;;13.79;59.62
48848;BME280;36611;51.638;5.784;2023-02-23T00:12:02;101157.88;;;13.78;59.82
48848;BME280;36611;51.638;5.784;2023-02-23T00:14:34;101151.59;;;13.78;59.58
48848;BME280;36611;51.638;5.784;2023-02-23T00:17:03;101157.88;;;13.78;59.64
48848;BME280;36611;51.638;5.784;2023-02-23T00:19:30;101156.03;;;13.79;59.79
48848;BME280;36611;51.638;5.784;2023-02-23T00:21:58;101150.75;;;13.77;59.38
48848;BME280;36611;51.638;5.784;2023-02-23T00:24:26;101150.88;;;13.76;59.71
48848;BME280;36611;51.638;5.784;2023-02-23T00:26:53;101151.00;;;13.74;59.72
48848;BME280;36611;51.638;5.784;2023-02-23T00:29:22;101152.09;;;13.72;59.63
48848;BME280;36611;51.638;5.784;2023-02-23T00:31:50;101149.63;;;13.68;59.50
48848;BME280;36611;51.638;5.784;2023-02-23T00:34:19;101149.03;;;13.65;59.77
48848;BME280;36611;51.638;5.784;2023-02-23T00:36:50;101149.16;;;13.63;59.88
48848;BME280;36611;51.638;5.784;2023-02-23T00:39:19;101142.16;;;13.61;59.78
48848;BME280;36611;51.638;5.784;2023-02-23T00:41:53;101143.00;;;13.61;59.47
48848;BME280;36611;51.638;5.784;2023-02-23T00:44:22;101147.53;;;13.61;59.62
48848;BME280;36611;51.638;5.784;2023-02-23T00:46:50;101137.72;;;13.60;59.58
48848;BME280;36611;51.638;5.784;2023-02-23T00:49:18;101144.09;;;13.59;59.79
48848;BME280;36611;51.638;5.784;2023-02-23T00:51:46;101149.38;;;13.60;59.97
48848;BME280;36611;51.638;5.784;2023-02-23T00:54:14;101136.00;;;13.59;59.75
48848;BME280;36611;51.638;5.784;2023-02-23T00:56:41;101138.72;;;13.59;59.88
48848;BME280;36611;51.638;5.784;2023-02-23T00:59:09;101146.81;;;13.59;59.93
48848;BME280;36611;51.638;5.784;2023-02-23T01:01:36;101148.78;;;13.57;60.14
48848;BME280;36611;51.638;5.784;2023-02-23T01:04:04;101146.19;;;13.55;59.76
48848;BME280;36611;51.638;5.784;2023-02-23T01:06:33;101147.06;;;13.56;60.14
48848;BME280;36611;51.638;5.784;2023-02-23T01:09:07;101139.06;;;13.54;59.90
48848;BME280;36611;51.638;5.784;2023-02-23T01:11:34;101144.59;;;13.53;60.16
48848;BME280;36611;51.638;5.784;2023-02-23T01:14:01;101140.19;;;13.52;60.05
48848;BME280;36611;51.638;5.784;2023-02-23T01:16:31;101134.91;;;13.50;60.25
48848;BME280;36611;51.638;5.784;2023-02-23T01:19:01;101141.28;;;13.49;60.27
48848;BME280;36611;51.638;5.784;2023-02-23T01:21:34;101140.41;;;13.49;60.21
48848;BME280;36611;51.638;5.784;2023-02-23T01:24:01;101138.81;;;13.46;60.09
48848;BME280;36611;51.638;5.784;2023-02-23T01:26:31;101145.44;;;13.42;60.05
48848;BME280;36611;51.638;5.784;2023-02-23T01:29:10;101147.50;;;13.39;60.00
48848;BME280;36611;51.638;5.784;2023-02-23T01:31:40;101147.97;;;13.32;60.33
48848;BME280;36611;51.638;5.784;2023-02-23T01:34:09;101150.91;;;13.29;60.42
48848;BME280;36611;51.638;5.784;2023-02-23T01:36:38;101152.97;;;13.26;60.54
48848;BME280;36611;51.638;5.784;2023-02-23T01:39:09;101143.91;;;13.27;60.26
48848;BME280;36611;51.638;5.784;2023-02-23T01:41:39;101144.13;;;13.24;60.10
48848;BME280;36611;51.638;5.784;2023-02-23T01:46:43;101149.03;;;13.19;60.22
48848;BME280;36611;51.638;5.784;2023-02-23T01:49:14;101150.00;;;13.18;60.21
48848;BME280;36611;51.638;5.784;2023-02-23T01:51:46;101153.69;;;13.17;60.11
48848;BME280;36611;51.638;5.784;2023-02-23T01:54:24;101155.59;;;13.15;60.43
48848;BME280;36611;51.638;5.784;2023-02-23T01:56:55;101155.50;;;13.16;60.19
48848;BME280;36611;51.638;5.784;2023-02-23T01:59:31;101159.94;;;13.17;60.48
48848;BME280;36611;51.638;5.784;2023-02-23T02:02:00;101160.78;;;13.18;60.36
48848;BME280;36611;51.638;5.784;2023-02-23T02:04:34;101149.88;;;13.19;60.33
48848;BME280;36611;51.638;5.784;2023-02-23T02:07:15;101162.41;;;13.20;60.54
48848;BME280;36611;51.638;5.784;2023-02-23T02:09:47;101168.78;;;13.19;60.18
48848;BME280;36611;51.638;5.784;2023-02-23T02:12:39;101162.63;;;13.17;60.01
48848;BME280;36611;51.638;5.784;2023-02-23T02:15:08;101165.34;;;13.17;60.30
48848;BME280;36611;51.638;5.784;2023-02-23T02:37:19;101161.09;;;13.02;60.40
48848;BME280;36611;51.638;5.784;2023-02-23T02:40:16;101154.72;;;13.03;60.59
48848;BME280;36611;51.638;5.784;2023-02-23T02:43:19;101148.47;;;13.02;60.17
48848;BME280;36611;51.638;5.784;2023-02-23T02:46:01;101153.63;;;13.05;60.42
48848;BME280;36611;51.638;5.784;2023-02-23T02:48:34;101161.72;;;13.05;60.37
48848;BME280;36611;51.638;5.784;2023-02-23T02:51:22;101157.41;;;13.03;60.38
48848;BME280;36611;51.638;5.784;2023-02-23T02:56:41;101163.78;;;13.02;60.29
48848;BME280;36611;51.638;5.784;2023-02-23T02:59:12;101161.09;;;13.02;60.55
48848;BME280;36611;51.638;5.784;2023-02-23T03:01:58;101162.91;;;13.01;60.45
48848;BME280;36611;51.638;5.784;2023-02-23T03:04:44;101159.34;;;13.01;60.33
48848;BME280;36611;51.638;5.784;2023-02-23T03:07:40;101158.63;;;12.99;60.76
48848;BME280;36611;51.638;5.784;2023-02-23T03:19:33;101160.81;;;12.94;60.68
48848;BME280;36611;51.638;5.784;2023-02-23T03:22:25;101155.53;;;12.92;60.86
48848;BME280;36611;51.638;5.784;2023-02-23T03:25:18;101169.00;;;12.92;60.82
48848;BME280;36611;51.638;5.784;2023-02-23T03:28:12;101162.75;;;12.92;60.77
48848;BME280;36611;51.638;5.784;2023-02-23T03:34:05;101167.16;;;12.93;60.71
48848;BME280;36611;51.638;5.784;2023-02-23T03:40:07;101165.69;;;12.89;60.72
48848;BME280;36611;51.638;5.784;2023-02-23T03:42:57;101164.94;;;12.87;60.90
48848;BME280;36611;51.638;5.784;2023-02-23T03:45:45;101167.75;;;12.85;60.60
48848;BME280;36611;51.638;5.784;2023-02-23T03:48:33;101175.09;;;12.83;60.70
48848;BME280;36611;51.638;5.784;2023-02-23T03:51:21;101175.22;;;12.82;60.80
48848;BME280;36611;51.638;5.784;2023-02-23T03:54:13;101176.06;;;12.82;60.87
48848;BME280;36611;51.638;5.784;2023-02-23T03:57:03;101179.63;;;12.83;60.87
48848;BME280;36611;51.638;5.784;2023-02-23T03:59:56;101183.28;;;12.82;61.14
48848;BME280;36611;51.638;5.784;2023-02-23T04:02:43;101179.63;;;12.83;60.99
48848;BME280;36611;51.638;5.784;2023-02-23T04:05:33;101178.75;;;12.82;61.05
48848;BME280;36611;51.638;5.784;2023-02-23T04:08:24;101173.38;;;12.82;61.08
48848;BME280;36611;51.638;5.784;2023-02-23T04:14:40;101184.91;;;12.84;60.92
48848;BME280;36611;51.638;5.784;2023-02-23T04:17:10;101180.47;;;12.83;60.88
48848;BME280;36611;51.638;5.784;2023-02-23T04:19:37;101187.72;;;12.83;61.17
48848;BME280;36611;51.638;5.784;2023-02-23T04:22:04;101187.72;;;12.83;60.86
48848;BME280;36611;51.638;5.784;2023-02-23T04:24:30;101192.25;;;12.82;61.09
48848;BME280;36611;51.638;5.784;2023-02-23T04:26:57;101186.00;;;12.82;61.04
48848;BME280;36611;51.638;5.784;2023-02-23T04:29:24;101191.38;;;12.82;61.15
48848;BME280;36611;51.638;5.784;2023-02-23T04:31:50;101194.06;;;12.82;60.96
48848;BME280;36611;51.638;5.784;2023-02-23T04:34:19;101202.16;;;12.82;60.93
48848;BME280;36611;51.638;5.784;2023-02-23T04:36:46;101196.03;;;12.80;60.94
48848;BME280;36611;51.638;5.784;2023-02-23T04:39:13;101202.38;;;12.79;60.94
48848;BME280;36611;51.638;5.784;2023-02-23T04:41:39;101200.66;;;12.78;61.13
48848;BME280;36611;51.638;5.784;2023-02-23T04:44:06;101206.19;;;12.76;61.44
48848;BME280;36611;51.638;5.784;2023-02-23T04:46:33;101203.38;;;12.78;61.14
48848;BME280;36611;51.638;5.784;2023-02-23T04:48:59;101212.31;;;12.78;61.39
48848;BME280;36611;51.638;5.784;2023-02-23T04:51:26;101207.78;;;12.79;61.27
48848;BME280;36611;51.638;5.784;2023-02-23T04:53:57;101207.78;;;12.79;61.20
48848;BME280;36611;51.638;5.784;2023-02-23T04:56:24;101208.00;;;12.76;61.40
48848;BME280;36611;51.638;5.784;2023-02-23T04:58:51;101210.72;;;12.76;61.44
48848;BME280;36611;51.638;5.784;2023-02-23T05:01:18;101208.34;;;12.71;61.22
48848;BME280;36611;51.638;5.784;2023-02-23T05:03:47;101209.31;;;12.70;61.24
48848;BME280;36611;51.638;5.784;2023-02-23T05:06:15;101213.84;;;12.69;61.42
48848;BME280;36611;51.638;5.784;2023-02-23T05:08:41;101211.16;;;12.69;61.27
48848;BME280;36611;51.638;5.784;2023-02-23T05:11:09;101211.91;;;12.71;61.55
48848;BME280;36611;51.638;5.784;2023-02-23T05:13:35;101216.44;;;12.71;61.33
48848;BME280;36611;51.638;5.784;2023-02-23T05:16:02;101208.34;;;12.71;61.52
48848;BME280;36611;51.638;5.784;2023-02-23T05:18:29;101213.75;;;12.71;61.42
48848;BME280;36611;51.638;5.784;2023-02-23T05:21:04;101221.09;;;12.69;61.43
48848;BME280;36611;51.638;5.784;2023-02-23T05:23:33;101222.91;;;12.68;61.59
48848;BME280;36611;51.638;5.784;2023-02-23T05:26:01;101224.88;;;12.66;61.64
48848;BME280;36611;51.638;5.784;2023-02-23T05:28:29;101227.44;;;12.68;61.63
48848;BME280;36611;51.638;5.784;2023-02-23T05:30:56;101227.44;;;12.68;61.45
48848;BME280;36611;51.638;5.784;2023-02-23T05:33:23;101231.00;;;12.68;61.69
48848;BME280;36611;51.638;5.784;2023-02-23T05:35:49;101226.34;;;12.70;61.52
48848;BME280;36611;51.638;5.784;2023-02-23T05:38:16;101230.03;;;12.69;61.40
48848;BME280;36611;51.638;5.784;2023-02-23T05:40:43;101236.50;;;12.67;61.57
48848;BME280;36611;51.638;5.784;2023-02-23T05:43:09;101230.25;;;12.66;61.47
48848;BME280;36611;51.638;5.784;2023-02-23T05:45:40;101231.22;;;12.65;61.44
48848;BME280;36611;51.638;5.784;2023-02-23T05:48:08;101223.13;;;12.65;61.61
48848;BME280;36611;51.638;5.784;2023-02-23T05:50:35;101229.38;;;12.66;61.61
48848;BME280;36611;51.638;5.784;2023-02-23T05:53:02;101231.22;;;12.65;61.82
48848;BME280;36611;51.638;5.784;2023-02-23T05:55:29;101226.81;;;12.64;61.79
48848;BME280;36611;51.638;5.784;2023-02-23T05:57:56;101232.19;;;12.64;61.96
48848;BME280;36611;51.638;5.784;2023-02-23T06:00:22;101228.72;;;12.62;61.81
48848;BME280;36611;51.638;5.784;2023-02-23T06:02:49;101232.38;;;12.61;61.83
48848;BME280;36611;51.638;5.784;2023-02-23T06:05:18;101237.91;;;12.60;61.85
48848;BME280;36611;51.638;5.784;2023-02-23T06:07:44;101238.75;;;12.60;61.73
48848;BME280;36611;51.638;5.784;2023-02-23T06:10:12;101238.75;;;12.60;61.54
48848;BME280;36611;51.638;5.784;2023-02-23T06:12:39;101245.00;;;12.61;61.94
48848;BME280;36611;51.638;5.784;2023-02-23T06:15:07;101238.75;;;12.60;61.58
48848;BME280;36611;51.638;5.784;2023-02-23T06:17:34;101240.59;;;12.60;61.76
48848;BME280;36611;51.638;5.784;2023-02-23T06:20:02;101243.28;;;12.60;61.90
48848;BME280;36611;51.638;5.784;2023-02-23T06:22:30;101253.09;;;12.61;61.77
48848;BME280;36611;51.638;5.784;2023-02-23T06:24:57;101247.81;;;12.59;61.94
48848;BME280;36611;51.638;5.784;2023-02-23T06:27:23;101255.03;;;12.59;61.41
48848;BME280;36611;51.638;5.784;2023-02-23T06:29:51;101255.03;;;12.59;61.50
48848;BME280;36611;51.638;5.784;2023-02-23T06:32:18;101255.16;;;12.57;61.74
48848;BME280;36611;51.638;5.784;2023-02-23T06:34:47;101259.56;;;12.58;61.79
48848;BME280;36611;51.638;5.784;2023-02-23T06:37:14;101261.50;;;12.56;61.75
48848;BME280;36611;51.638;5.784;2023-02-23T06:39:40;101266.03;;;12.56;61.50
48848;BME280;36611;51.638;5.784;2023-02-23T06:42:07;101266.91;;;12.56;61.50
48848;BME280;36611;51.638;5.784;2023-02-23T06:44:34;101270.56;;;12.55;61.79
48848;BME280;36611;51.638;5.784;2023-02-23T06:47:03;101278.66;;;12.55;61.93
48848;BME280;36611;51.638;5.784;2023-02-23T06:49:31;101271.53;;;12.54;61.60
48848;BME280;36611;51.638;5.784;2023-02-23T06:51:58;101280.47;;;12.55;61.71
48848;BME280;36611;51.638;5.784;2023-02-23T06:54:24;101273.25;;;12.55;61.69
48848;BME280;36611;51.638;5.784;2023-02-23T06:56:51;101285.75;;;12.56;61.45
48848;BME280;36611;51.638;5.784;2023-02-23T06:59:20;101284.03;;;12.55;61.63
48848;BME280;36611;51.638;5.784;2023-02-23T07:01:46;101282.41;;;12.53;61.78
48848;BME280;36611;51.638;5.784;2023-02-23T07:04:13;101294.16;;;12.52;61.92
48848;BME280;36611;51.638;5.784;2023-02-23T07:06:42;101295.13;;;12.51;61.87
48848;BME280;36611;51.638;5.784;2023-02-23T07:09:08;101293.41;;;12.50;61.95
48848;BME280;36611;51.638;5.784;2023-02-23T07:11:35;101294.38;;;12.49;61.93
48848;BME280;36611;51.638;5.784;2023-02-23T07:14:02;101300.63;;;12.49;61.70
48848;BME280;36611;51.638;5.784;2023-02-23T07:16:29;101303.44;;;12.48;61.77
48848;BME280;36611;51.638;5.784;2023-02-23T07:18:56;101303.78;;;12.43;61.91
48848;BME280;36611;51.638;5.784;2023-02-23T07:21:22;101307.66;;;12.39;62.14
48848;BME280;36611;51.638;5.784;2023-02-23T07:23:49;101314.22;;;12.35;62.14
48848;BME280;36611;51.638;5.784;2023-02-23T07:26:16;101313.47;;;12.33;62.03
48848;BME280;36611;51.638;5.784;2023-02-23T07:28:43;101305.63;;;12.30;61.92
48848;BME280;36611;51.638;5.784;2023-02-23T07:31:10;101316.59;;;12.27;62.27
48848;BME280;36611;51.638;5.784;2023-02-23T07:33:37;101314.13;;;12.24;61.81
48848;BME280;36611;51.638;5.784;2023-02-23T07:36:04;101317.91;;;12.21;62.28
48848;BME280;36611;51.638;5.784;2023-02-23T07:38:31;101326.09;;;12.20;62.15
48848;BME280;36611;51.638;5.784;2023-02-23T07:40:57;101326.09;;;12.20;62.37
48848;BME280;36611;51.638;5.784;2023-02-23T07:43:24;101323.41;;;12.20;62.34
48848;BME280;36611;51.638;5.784;2023-02-23T07:45:50;101336.97;;;12.18;62.20
48848;BME280;36611;51.638;5.784;2023-02-23T07:48:17;101332.56;;;12.17;62.27
48848;BME280;36611;51.638;5.784;2023-02-23T07:50:44;101334.38;;;12.17;62.59
48848;BME280;36611;51.638;5.784;2023-02-23T07:53:11;101340.53;;;12.19;62.69
48848;BME280;36611;51.638;5.784;2023-02-23T07:55:38;101343.22;;;12.19;62.42
48848;BME280;36611;51.638;5.784;2023-02-23T07:58:06;101344.06;;;12.19;62.64
48848;BME280;36611;51.638;5.784;2023-02-23T08:00:34;101345.03;;;12.18;62.75
48848;BME280;36611;51.638;5.784;2023-02-23T08:03:02;101346.88;;;12.18;62.73
48848;BME280;36611;51.638;5.784;2023-02-23T08:05:28;101354.09;;;12.17;62.39
48848;BME280;36611;51.638;5.784;2023-02-23T08:07:56;101354.97;;;12.18;62.86
48848;BME280;36611;51.638;5.784;2023-02-23T08:10:23;101354.09;;;12.17;62.68
48848;BME280;36611;51.638;5.784;2023-02-23T08:12:50;101358.41;;;12.20;62.70
48848;BME280;36611;51.638;5.784;2023-02-23T08:15:17;101369.94;;;12.22;62.94
48848;BME280;36611;51.638;5.784;2023-02-23T08:17:44;101361.84;;;12.22;62.94
48848;BME280;36611;51.638;5.784;2023-02-23T08:20:10;101372.63;;;12.22;63.02
48848;BME280;36611;51.638;5.784;2023-02-23T08:22:37;101369.94;;;12.22;63.01
48848;BME280;36611;51.638;5.784;2023-02-23T08:25:15;101378.75;;;12.24;62.88
48848;BME280;36611;51.638;5.784;2023-02-23T08:27:41;101378.75;;;12.24;63.08
48848;BME280;36611;51.638;5.784;2023-02-23T08:30:09;101382.44;;;12.23;63.23
48848;BME280;36611;51.638;5.784;2023-02-23T08:32:35;101380.69;;;12.22;63.23
48848;BME280;36611;51.638;5.784;2023-02-23T08:35:02;101387.81;;;12.23;63.12
48848;BME280;36611;51.638;5.784;2023-02-23T08:37:29;101394.06;;;12.23;63.06
48848;BME280;36611;51.638;5.784;2023-02-23T08:39:56;101385.75;;;12.26;63.13
48848;BME280;36611;51.638;5.784;2023-02-23T08:42:24;101389.22;;;12.28;63.32
48848;BME280;36611;51.638;5.784;2023-02-23T08:44:51;101390.84;;;12.31;63.40
48848;BME280;36611;51.638;5.784;2023-02-23T08:47:18;101394.28;;;12.33;63.14
48848;BME280;36611;51.638;5.784;2023-02-23T08:49:49;101391.38;;;12.36;63.22
48848;BME280;36611;51.638;5.784;2023-02-23T08:52:16;101399.25;;;12.39;63.20
48848;BME280;36611;51.638;5.784;2023-02-23T08:54:43;101394.59;;;12.41;63.34
48848;BME280;36611;51.638;5.784;2023-02-23T08:57:10;101394.41;;;12.44;63.38
48848;BME280;36611;51.638;5.784;2023-02-23T08:59:38;101406.69;;;12.48;63.28
48848;BME280;36611;51.638;5.784;2023-02-23T09:02:10;101394.94;;;12.49;63.14
48848;BME280;36611;51.638;5.784;2023-02-23T09:04:40;101406.34;;;12.53;63.36
48848;BME280;36611;51.638;5.784;2023-02-23T09:07:09;101405.28;;;12.55;63.23
48848;BME280;36611;51.638;5.784;2023-02-23T09:09:38;101407.75;;;12.58;63.27
48848;BME280;36611;51.638;5.784;2023-02-23T09:12:05;101404.94;;;12.60;63.11
48848;BME280;36611;51.638;5.784;2023-02-23T09:14:32;101412.06;;;12.61;63.46
48848;BME280;36611;51.638;5.784;2023-02-23T09:16:59;101413.78;;;12.62;63.29
48848;BME280;36611;51.638;5.784;2023-02-23T09:19:25;101416.28;;;12.65;63.55
48848;BME280;36611;51.638;5.784;2023-02-23T09:21:52;101417.81;;;12.69;63.36
48848;BME280;36611;51.638;5.784;2023-02-23T09:24:20;101429.34;;;12.71;63.31
48848;BME280;36611;51.638;5.784;2023-02-23T09:26:48;101437.22;;;12.74;63.48
48848;BME280;36611;51.638;5.784;2023-02-23T09:29:15;101433.44;;;12.77;63.53
48848;BME280;36611;51.638;5.784;2023-02-23T09:31:41;101431.38;;;12.80;63.21
48848;BME280;36611;51.638;5.784;2023-02-23T09:34:09;101434.72;;;12.84;63.45
48848;BME280;36611;51.638;5.784;2023-02-23T09:36:37;101430.31;;;12.83;63.23
48848;BME280;36611;51.638;5.784;2023-02-23T09:39:04;101432.13;;;12.82;63.20
48848;BME280;36611;51.638;5.784;2023-02-23T09:41:58;101433.00;;;12.83;63.19
48848;BME280;36611;51.638;5.784;2023-02-23T09:47:27;101444.19;;;12.89;63.41
48848;BME280;36611;51.638;5.784;2023-02-23T09:49:57;101435.78;;;12.94;62.82
48848;BME280;36611;51.638;5.784;2023-02-23T09:52:59;101440.22;;;12.95;63.15
48848;BME280;36611;51.638;5.784;2023-02-23T09:55:29;101440.75;;;13.00;63.31
48848;BME280;36611;51.638;5.784;2023-02-23T09:58:04;101438.91;;;13.00;63.00
48848;BME280;36611;51.638;5.784;2023-02-23T10:00:40;101448.72;;;13.01;63.20
48848;BME280;36611;51.638;5.784;2023-02-23T10:03:15;101446.88;;;13.02;63.24
48848;BME280;36611;51.638;5.784;2023-02-23T10:05:51;101453.34;;;12.99;63.19
48848;BME280;36611;51.638;5.784;2023-02-23T10:08:28;101465.97;;;12.99;63.05
48848;BME280;36611;51.638;5.784;2023-02-23T10:16:24;101452.59;;;12.97;62.92
48848;BME280;36611;51.638;5.784;2023-02-23T10:19:02;101455.19;;;12.99;63.11
48848;BME280;36611;51.638;5.784;2023-02-23T10:21:40;101455.94;;;13.01;62.85
48848;BME280;36611;51.638;5.784;2023-02-23T10:24:15;101454.09;;;13.01;62.78
48848;BME280;36611;51.638;5.784;2023-02-23T10:26:54;101457.66;;;13.02;63.09
48848;BME280;36611;51.638;5.784;2023-02-23T10:29:26;101453.03;;;13.04;62.91
48848;BME280;36611;51.638;5.784;2023-02-23T10:31:59;101455.63;;;13.05;62.92
48848;BME280;36611;51.638;5.784;2023-02-23T10:34:29;101454.75;;;13.05;62.48
48848;BME280;36611;51.638;5.784;2023-02-23T10:37:02;101452.81;;;13.07;62.72
48848;BME280;36611;51.638;5.784;2023-02-23T10:39:30;101457.97;;;13.10;62.92
48848;BME280;36611;51.638;5.784;2023-02-23T10:42:01;101464.22;;;13.11;62.56
48848;BME280;36611;51.638;5.784;2023-02-23T10:44:31;101466.81;;;13.12;62.93
48848;BME280;36611;51.638;5.784;2023-02-23T10:47:06;101467.56;;;13.14;62.65
48848;BME280;36611;51.638;5.784;2023-02-23T10:49:40;101466.59;;;13.15;62.71
48848;BME280;36611;51.638;5.784;2023-02-23T10:52:14;101464.56;;;13.19;62.87
48848;BME280;36611;51.638;5.784;2023-02-23T10:54:46;101470.63;;;13.22;62.84
48848;BME280;36611;51.638;5.784;2023-02-23T10:57:21;101472.13;;;13.26;63.05
48848;BME280;36611;51.638;5.784;2023-02-23T11:02:47;101474.47;;;13.31;62.62
48848;BME280;36611;51.638;5.784;2023-02-23T11:05:35;101479.75;;;13.32;62.59
48848;BME280;36611;51.638;5.784;2023-02-23T11:08:19;101478.69;;;13.35;62.37
48848;BME280;36611;51.638;5.784;2023-02-23T11:11:21;101487.53;;;13.37;62.43
48848;BME280;36611;51.638;5.784;2023-02-23T11:13:47;101480.41;;;13.36;62.71
48848;BME280;36611;51.638;5.784;2023-02-23T11:16:17;101481.25;;;13.36;62.76
48848;BME280;36611;51.638;5.784;2023-02-23T11:18:56;101480.28;;;13.38;62.38
48848;BME280;36611;51.638;5.784;2023-02-23T11:21:29;101468.56;;;13.39;62.60
48848;BME280;36611;51.638;5.784;2023-02-23T11:24:39;101473.94;;;13.39;62.54
48848;BME280;36611;51.638;5.784;2023-02-23T11:27:19;101473.94;;;13.39;62.55
48848;BME280;36611;51.638;5.784;2023-02-23T11:29:48;101472.00;;;13.41;62.14
48848;BME280;36611;51.638;5.784;2023-02-23T11:32:31;101472.63;;;13.44;62.62
48848;BME280;36611;51.638;5.784;2023-02-23T11:37:47;101463.47;;;13.47;62.16
48848;BME280;36611;51.638;5.784;2023-02-23T11:40:24;101459.78;;;13.48;62.51
48848;BME280;36611;51.638;5.784;2023-02-23T11:45:28;101449.09;;;13.46;62.21
48848;BME280;36611;51.638;5.784;2023-02-23T11:48:04;101455.13;;;13.50;62.06
48848;BME280;36611;51.638;5.784;2023-02-23T11:50:34;101457.50;;;13.54;62.18
48848;BME280;36611;51.638;5.784;2023-02-23T11:53:11;101452.63;;;13.59;62.21
48848;BME280;36611;51.638;5.784;2023-02-23T11:55:45;101454.00;;;13.65;62.08
48848;BME280;36611;51.638;5.784;2023-02-23T11:58:30;101451.19;;;13.66;61.98
48848;BME280;36611;51.638;5.784;2023-02-23T12:01:14;101461.88;;;13.68;61.88
48848;BME280;36611;51.638;5.784;2023-02-23T12:03:45;101463.47;;;13.71;61.96
48848;BME280;36611;51.638;5.784;2023-02-23T12:06:32;101467.78;;;13.73;61.81
48848;BME280;36611;51.638;5.784;2023-02-23T12:09:27;101464.13;;;13.74;61.80
48848;BME280;36611;51.638;5.784;2023-02-23T12:12:03;101458.84;;;13.73;61.52
48848;BME280;36611;51.638;5.784;2023-02-23T12:14:48;101458.72;;;13.74;61.86
48848;BME280;36611;51.638;5.784;2023-02-23T12:17:23;101458.50;;;13.77;61.67
48848;BME280;36611;51.638;5.784;2023-02-23T12:20:15;101454.81;;;13.78;61.57
48848;BME280;36611;51.638;5.784;2023-02-23T12:23:20;101450.91;;;13.82;61.79
48848;BME280;36611;51.638;5.784;2023-02-23T12:28:20;101452.75;;;13.82;61.52
48848;BME280;36611;51.638;5.784;2023-02-23T12:33:56;101450.03;;;13.82;61.60
48848;BME280;36611;51.638;5.784;2023-02-23T12:39:02;101450.16;;;13.80;61.12
48848;BME280;36611;51.638;5.784;2023-02-23T12:41:37;101444.66;;;13.82;61.25
48848;BME280;36611;51.638;5.784;2023-02-23T12:47:51;101438.38;;;13.81;61.19
48848;BME280;36611;51.638;5.784;2023-02-23T12:50:40;101443.66;;;13.83;61.25
48848;BME280;36611;51.638;5.784;2023-02-23T12:53:23;101437.41;;;13.82;61.05
48848;BME280;36611;51.638;5.784;2023-02-23T12:57:02;101442.81;;;13.82;60.96
48848;BME280;36611;51.638;5.784;2023-02-23T13:01:55;101452.63;;;13.83;60.85
48848;BME280;36611;51.638;5.784;2023-02-23T13:07:28;101449.94;;;13.83;60.93
48848;BME280;36611;51.638;5.784;2023-02-23T13:18:21;101448.22;;;13.82;60.53
48848;BME280;36611;51.638;5.784;2023-02-23T13:20:54;101449.81;;;13.85;60.54
48848;BME280;36611;51.638;5.784;2023-02-23T13:23:28;101446.13;;;13.86;60.36
48848;BME280;36611;51.638;5.784;2023-02-23T13:28:58;101446.53;;;13.92;59.88
48848;BME280;36611;51.638;5.784;2023-02-23T13:31:31;101441.13;;;13.92;59.58
48848;BME280;36611;51.638;5.784;2023-02-23T13:34:01;101444.81;;;13.91;59.77
48848;BME280;36611;51.638;5.784;2023-02-23T13:36:30;101444.94;;;13.90;59.34
48848;BME280;36611;51.638;5.784;2023-02-23T13:42:00;101442.47;;;13.87;59.04
48848;BME280;36611;51.638;5.784;2023-02-23T13:44:36;101438.16;;;13.84;58.96
48848;BME280;36611;51.638;5.784;2023-02-23T13:47:47;101440.34;;;13.79;58.78
48848;BME280;36611;51.638;5.784;2023-02-23T13:50:23;101436.91;;;13.77;58.66
48848;BME280;36611;51.638;5.784;2023-02-23T13:52:53;101433.56;;;13.74;58.65
48848;BME280;36611;51.638;5.784;2023-02-23T13:58:14;101438.16;;;13.60;58.87
48848;BME280;36611;51.638;5.784;2023-02-23T14:00:42;101441.94;;;13.58;58.75
48848;BME280;36611;51.638;5.784;2023-02-23T14:03:21;101447.56;;;13.55;58.75
48848;BME280;36611;51.638;5.784;2023-02-23T14:05:53;101456.75;;;13.52;58.78
48848;BME280;36611;51.638;5.784;2023-02-23T14:08:29;101459.69;;;13.49;58.52
48848;BME280;36611;51.638;5.784;2023-02-23T14:10:56;101458.19;;;13.45;58.59
48848;BME280;36611;51.638;5.784;2023-02-23T14:13:27;101458.28;;;13.44;58.17
48848;BME280;36611;51.638;5.784;2023-02-23T14:16:17;101459.50;;;13.40;58.17
48848;BME280;36611;51.638;5.784;2023-02-23T14:18:55;101461.22;;;13.41;58.39
48848;BME280;36611;51.638;5.784;2023-02-23T14:24:13;101463.47;;;13.47;58.40
48848;BME280;36611;51.638;5.784;2023-02-23T14:29:36;101456.56;;;13.43;58.39
48848;BME280;36611;51.638;5.784;2023-02-23T14:37:33;101457.31;;;13.45;58.38
48848;BME280;36611;51.638;5.784;2023-02-23T14:40:21;101458.28;;;13.44;57.86
48848;BME280;36611;51.638;5.784;2023-02-23T14:42:51;101460.13;;;13.43;58.19
48848;BME280;36611;51.638;5.784;2023-02-23T14:45:22;101464.66;;;13.43;57.91
48848;BME280;36611;51.638;5.784;2023-02-23T14:47:57;101462.94;;;13.42;58.00
48848;BME280;36611;51.638;5.784;2023-02-23T14:50:30;101464.78;;;13.41;58.17
48848;BME280;36611;51.638;5.784;2023-02-23T14:52:58;101472.31;;;13.36;57.91
48848;BME280;36611;51.638;5.784;2023-02-23T14:55:28;101474.47;;;13.31;58.10
48848;BME280;36611;51.638;5.784;2023-02-23T14:57:56;101472.88;;;13.28;58.23
48848;BME280;36611;51.638;5.784;2023-02-23T15:00:29;101468.56;;;13.26;57.94
48848;BME280;36611;51.638;5.784;2023-02-23T15:03:00;101471.38;;;13.24;58.13
48848;BME280;36611;51.638;5.784;2023-02-23T15:05:33;101476.00;;;13.22;58.02